• Join FlightAware (Why Join?)
  • Login
  • US Flag 
06:47PM EDT


 

Airport Tracker/Info


-or-


 

Live Flight TrackerFlight Track Log ✈ ERR86 ✈ 25-Apr-2013 ✈ PAKT / KTN - PANC

Flight Track Log - Related Links

Times and Time Zones

All times are in EDT time to prevent confusion due to time zone crossing. See the ERR86 flight status page for this flight to view local times or setup timezone preferences in your user account.

Time Position Orientation Groundspeed Altitude Reporting Facility
EDT Latitude Longitude Course Direction KTS MPH feet Rate Location/Type
10:11PM 55.2667 -131.6667 313° West 110 127 5,500  Level Anchorage Center
10:12PM 55.2333 -131.6333 150° Southeast 130 150 7,300 1,680 Climbing Anchorage Center
10:13PM 55.1833 -131.6333 180° South 160 184 9,000 1,680 Climbing Anchorage Center
10:14PM 55.1667 -131.6500 210° Southwest 110 127 10,700 1,560 Climbing Anchorage Center
10:15PM 55.0833 -131.6332 311° West  Level FlightAware Approximate
10:15PM 55.1833 -131.7000 300° West 160 184 12,200  Level Anchorage Center
10:16PM 55.1179 -131.7189 313° West  Level FlightAware Approximate
10:16PM 55.2167 -131.7667 311° West 160 184 13,700  Level Anchorage Center
10:17PM 55.2500 -131.8333 311° West 170 196 15,100 1,500 Climbing Anchorage Center
10:18PM 55.2833 -131.9000 311° West 170 196 16,700 1,500 Climbing Anchorage Center
10:20PM 55.3333 -132.0333 303° West 180 207 19,600 1,320 Climbing Anchorage Center
10:21PM 55.3667 -132.1000 311° West 180 207 20,700 960 Climbing Anchorage Center
10:22PM 55.4000 -132.1667 311° West 180 207 21,600 900 Climbing Anchorage Center
10:23PM 55.4333 -132.2333 311° West 190 219 22,500 780 Climbing Anchorage Center
10:24PM 55.4667 -132.3000 311° West 190 219 23,200 720 Climbing Anchorage Center
10:25PM 55.5000 -132.3833 305° West 180 207 24,000 360 Climbing Anchorage Center
10:26PM 55.5333 -132.4500 311° West 200 230 24,000  Level Anchorage Center
10:27PM 55.5667 -132.5333 305° West 230 265 24,000  Level Anchorage Center
10:28PM 55.6167 -132.6333 312° West 230 265 24,000  Level Anchorage Center
10:29PM 55.6500 -132.7333 301° West 240 276 24,000  Level Anchorage Center
10:30PM 55.7000 -132.8167 317° Northwest 240 276 24,000  Level Anchorage Center
10:31PM 55.7333 -132.9000 305° West 240 276 24,000  Level Anchorage Center
10:32PM 55.7833 -133.0000 312° West 240 276 24,000  Level Anchorage Center
10:33PM 55.8167 -133.1000 301° West 240 276 24,000  Level Anchorage Center
10:34PM 55.8667 -133.1833 317° Northwest 240 276 24,000  Level Anchorage Center
10:35PM 55.8833 -133.2667 290° West 240 276 24,000  Level Anchorage Center
10:36PM 55.9333 -133.3500 317° Northwest 240 276 24,000  Level Anchorage Center
10:37PM 55.9667 -133.4500 301° West 240 276 24,000  Level Anchorage Center
10:38PM 56.0167 -133.5333 317° Northwest 240 276 24,000  Level Anchorage Center
10:39PM 56.0500 -133.6333 301° West 240 276 24,000  Level Anchorage Center
10:40PM 56.1000 -133.7167 317° Northwest 230 265 24,000  Level Anchorage Center
10:41PM 56.1333 -133.8167 301° West 240 276 24,000  Level Anchorage Center
10:42PM 56.1833 -133.9167 312° West 240 276 24,000  Level Anchorage Center
10:43PM 56.2167 -134.0000 306° West 230 265 24,000  Level Anchorage Center
10:44PM 56.2500 -134.1000 301° West 240 276 24,000  Level Anchorage Center
10:45PM 56.3000 -134.2000 312° West 240 276 24,000  Level Anchorage Center
10:46PM 56.3333 -134.2833 306° West 240 276 24,000  Level Anchorage Center
10:47PM 56.3667 -134.3833 301° West 240 276 24,000  Level Anchorage Center
10:48PM 56.4167 -134.4833 312° West 240 276 24,000  Level Anchorage Center
10:49PM 56.4500 -134.5667 306° West 230 265 24,000  Level Anchorage Center
10:50PM 56.5000 -134.6667 312° West 240 276 24,000  Level Anchorage Center
10:51PM 56.5333 -134.7667 301° West 240 276 24,000  Level Anchorage Center
10:52PM 56.5667 -134.8500 306° West 230 265 24,000  Level Anchorage Center
10:53PM 56.6167 -134.9500 312° West 240 276 24,000  Level Anchorage Center
10:54PM 56.6500 -135.0500 301° West 240 276 24,000  Level Anchorage Center
10:55PM 56.6833 -135.1500 301° West 230 265 24,000  Level Anchorage Center
10:56PM 56.7333 -135.2333 318° Northwest 240 276 24,000  Level Anchorage Center
10:57PM 56.7667 -135.3333 301° West 230 265 24,000  Level Anchorage Center
11:00PM 56.8352 -135.5113 305° West  Level FlightAware Approximate
11:01PM 56.9333 -135.7500 305° West 250 288 24,000  Level Anchorage Center
11:02PM 56.9833 -135.8333 318° Northwest 250 288 24,000  Level Anchorage Center
11:03PM 57.0167 -135.9333 302° West 230 265 24,000  Level Anchorage Center
11:04PM 57.0667 -136.0333 313° West 230 265 24,000  Level Anchorage Center
11:05PM 57.1000 -136.1333 302° West 230 265 24,000  Level Anchorage Center
11:06PM 57.1500 -136.2167 318° Northwest 240 276 24,000  Level Anchorage Center
11:07PM 57.1833 -136.3167 302° West 230 265 24,000  Level Anchorage Center
11:08PM 57.2167 -136.4167 302° West 230 265 24,000  Level Anchorage Center
11:09PM 57.2667 -136.5000 318° Northwest 220 253 24,000  Level Anchorage Center
11:10PM 57.3000 -136.6000 302° West 230 265 24,000  Level Anchorage Center
11:11PM 57.3333 -136.6833 307° West 220 253 24,000  Level Anchorage Center
11:12PM 57.3833 -136.7833 313° West 230 265 24,000  Level Anchorage Center
11:13PM 57.4167 -136.8667 307° West 220 253 24,000  Level Anchorage Center
11:14PM 57.4500 -136.9667 302° West 220 253 24,000  Level Anchorage Center
11:15PM 57.4833 -137.0667 302° West 230 265 24,000  Level Anchorage Center
11:16PM 57.5333 -137.1500 318° Northwest 220 253 24,000  Level Anchorage Center
11:17PM 57.5667 -137.2500 302° West 220 253 24,000  Level Anchorage Center
11:18PM 57.6000 -137.3500 302° West 230 265 24,000  Level Anchorage Center
11:19PM 57.6333 -137.4333 307° West 220 253 24,000  Level Anchorage Center
11:20PM 57.6833 -137.5333 313° West 230 265 24,000  Level Anchorage Center
11:21PM 57.7167 -137.6333 302° West 220 253 24,000  Level Anchorage Center
11:22PM 57.7500 -137.7167 307° West 240 276 24,000  Level Anchorage Center
11:23PM 57.7833 -137.8167 302° West 220 253 24,000  Level Anchorage Center
11:24PM 57.8333 -137.9167 313° West 230 265 24,000  Level Anchorage Center
11:25PM 57.8667 -138.0000 307° West 230 265 24,000  Level Anchorage Center
11:26PM 57.9000 -138.1000 302° West 230 265 24,000  Level Anchorage Center
11:27PM 57.9333 -138.2000 302° West 230 265 24,000  Level Anchorage Center
11:28PM 57.9833 -138.3000 313° West 220 253 24,000  Level Anchorage Center
11:29PM 58.0167 -138.3833 307° West 220 253 24,000  Level Anchorage Center
11:30PM 58.0500 -138.4833 302° West 230 265 24,000  Level Anchorage Center
11:31PM 58.0833 -138.5667 307° West 220 253 24,000  Level Anchorage Center
11:32PM 58.1167 -138.6667 302° West 220 253 24,000  Level Anchorage Center
11:33PM 58.1500 -138.7667 302° West 220 253 24,000  Level Anchorage Center
11:34PM 58.2000 -138.8500 319° Northwest 220 253 24,000  Level Anchorage Center
11:35PM 58.2333 -138.9500 302° West 210 242 24,000  Level Anchorage Center
11:36PM 58.2667 -139.0500 302° West 220 253 24,000  Level Anchorage Center
11:37PM 58.3000 -139.1333 307° West 220 253 24,000  Level Anchorage Center
11:38PM 58.3333 -139.2333 302° West 220 253 24,000  Level Anchorage Center
11:39PM 58.3667 -139.3333 302° West 220 253 24,000  Level Anchorage Center
11:40PM 58.4000 -139.4333 302° West 220 253 24,000  Level Anchorage Center
11:41PM 58.4333 -139.5167 307° West 220 253 24,000  Level Anchorage Center
11:42PM 58.4833 -139.6167 314° West 220 253 24,000  Level Anchorage Center
11:43PM 58.5167 -139.7167 303° West 220 253 24,000  Level Anchorage Center
11:44PM 58.5500 -139.8167 303° West 220 253 24,000  Level Anchorage Center
11:45PM 58.5833 -139.9167 303° West 220 253 24,000  Level Anchorage Center
11:46PM 58.6167 -140.0167 303° West 220 253 24,000  Level Anchorage Center
11:47PM 58.6500 -140.1167 303° West 210 242 24,000  Level Anchorage Center
11:48PM 58.6833 -140.2167 303° West 220 253 24,000  Level Anchorage Center
11:49PM 58.7167 -140.3000 308° West 220 253 24,000  Level Anchorage Center
11:50PM 58.7500 -140.4000 303° West 220 253 24,000  Level Anchorage Center
11:51PM 58.7833 -140.5000 303° West 210 242 24,000  Level Anchorage Center
11:52PM 58.8167 -140.6000 303° West 220 253 24,000  Level Anchorage Center
11:53PM 58.8667 -140.7000 314° West 220 253 24,000  Level Anchorage Center
11:54PM 58.9000 -140.8000 303° West 220 253 24,000  Level Anchorage Center
11:55PM 58.9333 -140.9000 303° West 220 253 24,000  Level Anchorage Center
11:56PM 58.9667 -141.0000 303° West 230 265 24,000  Level Anchorage Center
11:57PM 59.0000 -141.0833 308° West 220 253 24,000  Level Anchorage Center
11:58PM 59.0333 -141.2000 299° West 240 276 24,000  Level Anchorage Center
11:59PM 59.0667 -141.3000 303° West 230 265 24,000  Level Anchorage Center
12:00AM 59.1000 -141.4000 303° West 230 265 24,000  Level Anchorage Center
12:01AM 59.1333 -141.5167 299° West 230 265 24,000  Level Anchorage Center
12:02AM 59.1667 -141.6167 303° West 230 265 24,000  Level Anchorage Center
12:03AM 59.2000 -141.7167 303° West 230 265 24,000  Level Anchorage Center
12:04AM 59.2500 -141.8333 310° West 230 265 24,000  Level Anchorage Center
12:05AM 59.2833 -141.9333 303° West 230 265 24,000  Level Anchorage Center
12:06AM 59.3167 -142.0500 299° West 250 288 24,000  Level Anchorage Center
12:07AM 59.3500 -142.1667 299° West 240 276 24,000  Level Anchorage Center
12:08AM 59.3833 -142.2833 299° West 240 276 24,000  Level Anchorage Center
12:09AM 59.4167 -142.4000 299° West 240 276 24,000  Level Anchorage Center
12:10AM 59.4500 -142.5167 299° West 240 276 24,000  Level Anchorage Center
12:11AM 59.4833 -142.6333 299° West 240 276 24,000  Level Anchorage Center
12:12AM 59.5167 -142.7667 296° West 240 276 24,000  Level Anchorage Center
12:13AM 59.5500 -142.8833 299° West 250 288 24,000  Level Anchorage Center
12:14AM 59.5833 -143.0000 299° West 260 299 24,000  Level Anchorage Center
12:15AM 59.6167 -143.1333 296° West 260 299 24,000  Level Anchorage Center
12:16AM 59.6333 -143.2500 286° West 260 299 24,000  Level Anchorage Center
12:17AM 59.6667 -143.3833 296° West 260 299 24,000  Level Anchorage Center
12:18AM 59.7000 -143.5000 300° West 260 299 24,000  Level Anchorage Center
12:19AM 59.7333 -143.6333 296° West 260 299 24,000  Level Anchorage Center
12:20AM 59.7667 -143.7667 296° West 260 299 24,000  Level Anchorage Center
12:21AM 59.8000 -143.8833 300° West 240 276 24,000  Level Anchorage Center
12:22AM 59.8333 -144.0167 296° West 250 288 24,000  Level Anchorage Center
12:23AM 59.8667 -144.1333 300° West 250 288 24,000  Level Anchorage Center
12:24AM 59.9000 -144.2667 297° West 250 288 24,000  Level Anchorage Center
12:25AM 59.9167 -144.4000 284° West 250 288 24,000  Level Anchorage Center
12:26AM 59.9500 -144.5333 297° West 270 311 24,000  Level Anchorage Center
12:27AM 59.9833 -144.6500 300° West 260 299 24,000  Level Anchorage Center
12:28AM 60.0167 -144.7833 297° West 260 299 24,000  Level Anchorage Center
12:29AM 60.0500 -144.9167 297° West 260 299 24,000  Level Anchorage Center
12:30AM 60.0833 -145.0500 297° West 260 299 24,000  Level Anchorage Center
12:31AM 60.1167 -145.1833 297° West 260 299 24,000  Level Anchorage Center
12:32AM 60.1500 -145.3000 300° West 260 299 24,000  Level Anchorage Center
12:33AM 60.1667 -145.4333 284° West 270 311 24,000  Level Anchorage Center
12:34AM 60.2000 -145.5667 297° West 260 299 24,000  Level Anchorage Center
12:35AM 60.2333 -145.7000 297° West 260 299 24,000  Level Anchorage Center
12:36AM 60.2667 -145.8500 294° West 270 311 24,000  Level Anchorage Center
12:37AM 60.3000 -145.9833 297° West 270 311 24,000  Level Anchorage Center
12:38AM 60.3333 -146.1167 297° West 270 311 24,000  Level Anchorage Center
12:39AM 60.3500 -146.2500 284° West 270 311 24,000  Level Anchorage Center
12:40AM 60.3833 -146.3833 297° West 270 311 24,000  Level Anchorage Center
12:41AM 60.4167 -146.5333 294° West 270 311 24,000  Level Anchorage Center
12:42AM 60.4500 -146.6667 297° West 270 311 24,000  Level Anchorage Center
12:43AM 60.4833 -146.8000 297° West 270 311 24,000  Level Anchorage Center
12:44AM 60.5167 -146.9333 297° West 260 299 24,000  Level Anchorage Center
12:45AM 60.5333 -147.0833 283° West 270 311 24,000  Level Anchorage Center
12:46AM 60.5667 -147.2167 297° West 270 311 24,000  Level Anchorage Center
12:47AM 60.6000 -147.3500 297° West 270 311 24,000  Level Anchorage Center
12:48AM 60.6333 -147.5000 294° West 260 299 24,000 -60 Level Anchorage Center
12:49AM 60.6500 -147.6333 284° West 260 299 23,900 -600 Descending Anchorage Center
12:50AM 60.6833 -147.7833 294° West 290 334 22,800 -1,200 Descending Anchorage Center
12:51AM 60.7167 -147.9500 292° West 290 334 21,600 -1,200 Descending Anchorage Center
12:52AM 60.7500 -148.1000 295° West 290 334 20,500 -1,200 Descending Anchorage Center
12:53AM 60.7833 -148.2500 295° West 290 334 19,300 -1,320 Descending Anchorage Center
12:54AM 60.8167 -148.4000 295° West 280 322 17,900 -1,440 Descending Anchorage Center
12:55AM 60.8333 -148.5500 283° West 280 322 16,500 -1,260 Descending Anchorage Center
12:56AM 60.8667 -148.7000 295° West 280 322 15,400 -1,200 Descending Anchorage Center
12:57AM 60.9000 -148.8500 295° West 280 322 14,200 -1,200 Descending Anchorage Center
12:59AM 60.9333 -149.0406 290° West  Level FlightAware Approximate
01:06AM 61.1375 -149.8667 297° West  Level FlightAware Approximate
01:07AM 61.1667 -149.9833 297° West  Level FlightAware Approximate
01:08AM 61.1741 -149.9982 297° West  Level Estimated
01:09AM 61.1741 -149.9982 297° West  Level Estimated
01:10AM 61.1741 -149.9982 297° West  Level Estimated
01:11AM 61.1741 -149.9982 297° West  Level Estimated
01:12AM 61.1741 -149.9982 297° West  Level Estimated
01:13AM 61.1741 -149.9982 297° West  Level Estimated
01:14AM 61.1741 -149.9982 297° West  Level Estimated
01:15AM 61.1741 -149.9982 297° West  Level Estimated
01:16AM 61.1741 -149.9982 297° West  Level Estimated
01:17AM 61.1741 -149.9982 297° West  Level Estimated
01:18AM 61.1741 -149.9982 297° West  Level Estimated
01:19AM 61.1741 -149.9982 297° West  Level Estimated
01:20AM 61.1741 -149.9982 297° West  Level Estimated
01:21AM 61.1741 -149.9982 297° West  Level Estimated
01:22AM 61.1741 -149.9982 297° West  Level Estimated
01:23AM 61.1741 -149.9982 297° West  Level Estimated
01:24AM 61.1741 -149.9982 297° West  Level Estimated
01:25AM 61.1741 -149.9982 297° West  Level Estimated
01:26AM 61.1741 -149.9982 297° West  Level Estimated